Woodfords, California
Current Conditions -  °F | °C
As of 6:53 AM on Tuesday 21 Oct 2014 (Local Time) from KTVL Reporting Station
Clear Clear  
Wind Chill: 35°   Ceiling: Unl
Heat Index: 39°   Visibility: 10mi
Dew Point: 26°   Wind: 6mph
Humidity: 60%   Direction: 230°SW
Pressure: 30.09"   Gusts: NA
Location:  38.6924°N, 119.835°W
Report Text: KTVL 211353Z AUTO 23005KT 10SM CLR 04/M03 A3009 RMK AO2 SLP162 T00391033
Loading
Personal Weather Stations






























Interactive Weather Map
Tropical Storm Tracking
New forecast layout! Learn more

10-Day Weather Forecast

Advertisements
Track Severe Weather on mobile